sensor_id;sensor_type;location;lat;lon;timestamp;pressure;altitude;pressure_sealevel;temperature;humidity
48364;BME280;34170;54.364;18.582;2023-03-19T00:00:29;100156.91;;;9.29;57.08
48364;BME280;34170;54.364;18.582;2023-03-19T00:03:17;100167.63;;;9.29;57.41
48364;BME280;34170;54.364;18.582;2023-03-19T00:05:53;100168.19;;;9.23;57.72
48364;BME280;34170;54.364;18.582;2023-03-19T00:08:21;100172.13;;;9.19;57.62
48364;BME280;34170;54.364;18.582;2023-03-19T00:10:49;100166.63;;;9.21;58.20
48364;BME280;34170;54.364;18.582;2023-03-19T00:13:17;100172.13;;;9.19;58.34
48364;BME280;34170;54.364;18.582;2023-03-19T00:15:45;100175.22;;;9.05;58.59
48364;BME280;34170;54.364;18.582;2023-03-19T00:18:16;100160.81;;;9.06;58.84
48364;BME280;34170;54.364;18.582;2023-03-19T00:20:44;100169.00;;;9.04;58.95
48364;BME280;34170;54.364;18.582;2023-03-19T00:23:12;100164.22;;;8.98;58.94
48364;BME280;34170;54.364;18.582;2023-03-19T00:25:39;100184.00;;;9.16;58.68
48364;BME280;34170;54.364;18.582;2023-03-19T00:28:07;100168.59;;;9.09;58.98
48364;BME280;34170;54.364;18.582;2023-03-19T00:30:34;100162.09;;;9.02;59.18
48364;BME280;34170;54.364;18.582;2023-03-19T00:33:02;100171.16;;;9.10;59.44
48364;BME280;34170;54.364;18.582;2023-03-19T00:35:30;100162.66;;;9.15;58.91
48364;BME280;34170;54.364;18.582;2023-03-19T00:37:57;100167.91;;;9.16;58.43
48364;BME280;34170;54.364;18.582;2023-03-19T00:40:25;100172.97;;;9.10;59.27
48364;BME280;34170;54.364;18.582;2023-03-19T00:42:53;100156.59;;;9.03;59.47
48364;BME280;34170;54.364;18.582;2023-03-19T00:45:20;100159.94;;;8.95;59.47
48364;BME280;34170;54.364;18.582;2023-03-19T00:47:48;100161.03;;;8.83;60.18
48364;BME280;34170;54.364;18.582;2023-03-19T00:50:15;100159.25;;;8.93;60.29
48364;BME280;34170;54.364;18.582;2023-03-19T00:52:43;100165.56;;;8.83;60.26
48364;BME280;34170;54.364;18.582;2023-03-19T00:55:10;100169.44;;;9.00;60.08
48364;BME280;34170;54.364;18.582;2023-03-19T00:57:38;100162.81;;;9.04;59.74
48364;BME280;34170;54.364;18.582;2023-03-19T01:00:06;100167.03;;;9.06;59.52
48364;BME280;34170;54.364;18.582;2023-03-19T01:02:35;100166.75;;;9.00;59.42
48364;BME280;34170;54.364;18.582;2023-03-19T01:05:03;100176.63;;;8.99;59.94
48364;BME280;34170;54.364;18.582;2023-03-19T01:07:31;100178.84;;;8.84;60.32
48364;BME280;34170;54.364;18.582;2023-03-19T01:09:58;100177.50;;;8.69;61.23
48364;BME280;34170;54.364;18.582;2023-03-19T01:12:27;100177.97;;;8.74;61.42
48364;BME280;34170;54.364;18.582;2023-03-19T01:14:54;100190.25;;;8.76;61.22
48364;BME280;34170;54.364;18.582;2023-03-19T01:17:21;100177.25;;;8.72;61.31
48364;BME280;34170;54.364;18.582;2023-03-19T01:19:49;100178.78;;;8.74;61.45
48364;BME280;34170;54.364;18.582;2023-03-19T01:22:17;100191.69;;;8.90;60.94
48364;BME280;34170;54.364;18.582;2023-03-19T01:24:51;100178.28;;;8.90;60.45
48364;BME280;34170;54.364;18.582;2023-03-19T01:27:19;100181.97;;;8.89;60.58
48364;BME280;34170;54.364;18.582;2023-03-19T01:29:48;100179.28;;;8.89;60.74
48364;BME280;34170;54.364;18.582;2023-03-19T01:32:26;100176.69;;;8.78;60.87
48364;BME280;34170;54.364;18.582;2023-03-19T01:35:12;100196.03;;;8.82;60.81
48364;BME280;34170;54.364;18.582;2023-03-19T01:37:40;100178.50;;;8.68;60.95
48364;BME280;34170;54.364;18.582;2023-03-19T01:40:11;100191.72;;;8.59;61.96
48364;BME280;34170;54.364;18.582;2023-03-19T01:42:55;100186.59;;;8.47;62.76
48364;BME280;34170;54.364;18.582;2023-03-19T01:45:43;100174.78;;;8.28;63.24
48364;BME280;34170;54.364;18.582;2023-03-19T01:48:42;100178.69;;;8.45;62.69
48364;BME280;34170;54.364;18.582;2023-03-19T01:51:15;100179.34;;;8.58;62.41
48364;BME280;34170;54.364;18.582;2023-03-19T01:53:59;100185.56;;;8.69;61.98
48364;BME280;34170;54.364;18.582;2023-03-19T01:56:37;100187.41;;;8.78;61.44
48364;BME280;34170;54.364;18.582;2023-03-19T01:59:39;100196.16;;;8.70;61.61
48364;BME280;34170;54.364;18.582;2023-03-19T02:02:27;100200.19;;;8.55;61.96
48364;BME280;34170;54.364;18.582;2023-03-19T02:05:07;100200.72;;;8.49;62.68
48364;BME280;34170;54.364;18.582;2023-03-19T02:07:37;100203.00;;;8.53;62.55
48364;BME280;34170;54.364;18.582;2023-03-19T02:10:09;100192.19;;;8.65;61.79
48364;BME280;34170;54.364;18.582;2023-03-19T02:12:37;100199.91;;;8.58;61.87
48364;BME280;34170;54.364;18.582;2023-03-19T02:15:05;100196.97;;;8.61;62.15
48364;BME280;34170;54.364;18.582;2023-03-19T02:17:33;100193.84;;;8.56;62.36
48364;BME280;34170;54.364;18.582;2023-03-19T02:22:35;100191.88;;;8.37;62.91
48364;BME280;34170;54.364;18.582;2023-03-19T02:25:13;100188.78;;;8.32;63.37
48364;BME280;34170;54.364;18.582;2023-03-19T02:27:45;100183.41;;;8.32;63.25
48364;BME280;34170;54.364;18.582;2023-03-19T02:30:19;100185.31;;;8.20;63.85
48364;BME280;34170;54.364;18.582;2023-03-19T02:32:47;100181.00;;;8.29;63.56
48364;BME280;34170;54.364;18.582;2023-03-19T02:35:15;100194.38;;;8.29;63.77
48364;BME280;34170;54.364;18.582;2023-03-19T02:37:42;100185.22;;;8.31;64.16
48364;BME280;34170;54.364;18.582;2023-03-19T02:40:15;100188.78;;;8.32;63.60
48364;BME280;34170;54.364;18.582;2023-03-19T02:42:45;100172.94;;;8.29;63.65
48364;BME280;34170;54.364;18.582;2023-03-19T02:45:13;100185.09;;;8.33;63.47
48364;BME280;34170;54.364;18.582;2023-03-19T02:47:40;100180.00;;;8.30;63.51
48364;BME280;34170;54.364;18.582;2023-03-19T02:50:09;100191.00;;;8.27;64.13
48364;BME280;34170;54.364;18.582;2023-03-19T02:52:36;100187.75;;;8.44;63.21
48364;BME280;34170;54.364;18.582;2023-03-19T02:55:04;100186.22;;;8.30;64.00
48364;BME280;34170;54.364;18.582;2023-03-19T02:57:34;100187.31;;;8.28;64.40
48364;BME280;34170;54.364;18.582;2023-03-19T03:00:03;100176.19;;;8.01;65.29
48364;BME280;34170;54.364;18.582;2023-03-19T03:02:31;100190.69;;;7.99;65.68
48364;BME280;34170;54.364;18.582;2023-03-19T03:04:59;100169.53;;;7.96;66.14
48364;BME280;34170;54.364;18.582;2023-03-19T03:07:26;100186.50;;;8.06;65.53
48364;BME280;34170;54.364;18.582;2023-03-19T03:09:53;100186.09;;;8.11;65.77
48364;BME280;34170;54.364;18.582;2023-03-19T03:12:21;100181.78;;;8.19;65.32
48364;BME280;34170;54.364;18.582;2023-03-19T03:14:48;100181.66;;;8.21;64.66
48364;BME280;34170;54.364;18.582;2023-03-19T03:17:17;100182.59;;;8.10;65.35
48364;BME280;34170;54.364;18.582;2023-03-19T03:19:45;100193.75;;;7.94;66.12
48364;BME280;34170;54.364;18.582;2023-03-19T03:22:13;100197.19;;;8.06;65.96
48364;BME280;34170;54.364;18.582;2023-03-19T03:24:41;100185.19;;;8.00;66.14
48364;BME280;34170;54.364;18.582;2023-03-19T03:27:08;100198.25;;;7.94;66.35
48364;BME280;34170;54.364;18.582;2023-03-19T03:29:36;100185.59;;;7.75;66.74
48364;BME280;34170;54.364;18.582;2023-03-19T03:32:04;100185.78;;;7.62;67.43
48364;BME280;34170;54.364;18.582;2023-03-19T03:34:33;100184.41;;;7.68;67.61
48364;BME280;34170;54.364;18.582;2023-03-19T03:37:00;100200.69;;;7.97;66.35
48364;BME280;34170;54.364;18.582;2023-03-19T03:39:28;100204.34;;;7.96;66.15
48364;BME280;34170;54.364;18.582;2023-03-19T03:41:55;100211.00;;;8.01;66.25
48364;BME280;34170;54.364;18.582;2023-03-19T03:44:23;100208.75;;;8.28;65.28
48364;BME280;34170;54.364;18.582;2023-03-19T03:46:50;100196.81;;;8.32;64.65
48364;BME280;34170;54.364;18.582;2023-03-19T03:49:18;100201.88;;;8.35;64.17
48364;BME280;34170;54.364;18.582;2023-03-19T03:51:46;100202.44;;;8.08;65.47
48364;BME280;34170;54.364;18.582;2023-03-19T03:54:13;100207.53;;;7.90;66.41
48364;BME280;34170;54.364;18.582;2023-03-19T03:56:41;100203.34;;;7.76;67.45
48364;BME280;34170;54.364;18.582;2023-03-19T03:59:08;100204.03;;;7.57;68.56
48364;BME280;34170;54.364;18.582;2023-03-19T04:01:36;100196.63;;;7.49;69.41
48364;BME280;34170;54.364;18.582;2023-03-19T04:04:04;100199.97;;;7.41;69.65
48364;BME280;34170;54.364;18.582;2023-03-19T04:06:31;100195.03;;;7.25;70.50
48364;BME280;34170;54.364;18.582;2023-03-19T04:09:17;100201.81;;;7.30;70.78
48364;BME280;34170;54.364;18.582;2023-03-19T04:11:46;100206.56;;;7.26;70.79
48364;BME280;34170;54.364;18.582;2023-03-19T04:14:17;100205.94;;;7.34;70.99
48364;BME280;34170;54.364;18.582;2023-03-19T04:16:44;100212.25;;;7.33;70.86
48364;BME280;34170;54.364;18.582;2023-03-19T04:19:12;100199.28;;;7.28;70.89
48364;BME280;34170;54.364;18.582;2023-03-19T04:21:40;100196.59;;;7.28;70.94
48364;BME280;34170;54.364;18.582;2023-03-19T04:24:08;100207.03;;;7.42;70.64
48364;BME280;34170;54.364;18.582;2023-03-19T04:26:37;100208.97;;;7.40;70.59
48364;BME280;34170;54.364;18.582;2023-03-19T04:29:05;100214.44;;;7.39;70.86
48364;BME280;34170;54.364;18.582;2023-03-19T04:31:34;100211.41;;;7.32;71.37
48364;BME280;34170;54.364;18.582;2023-03-19T04:34:02;100200.28;;;7.16;71.74
48364;BME280;34170;54.364;18.582;2023-03-19T04:36:29;100187.16;;;7.13;71.68
48364;BME280;34170;54.364;18.582;2023-03-19T04:38:57;100206.31;;;7.29;71.28
48364;BME280;34170;54.364;18.582;2023-03-19T04:41:25;100209.41;;;7.57;70.19
48364;BME280;34170;54.364;18.582;2023-03-19T04:44:04;100205.31;;;7.41;70.70
48364;BME280;34170;54.364;18.582;2023-03-19T04:46:32;100207.91;;;7.20;71.95
48364;BME280;34170;54.364;18.582;2023-03-19T04:49:01;100214.25;;;7.19;71.56
48364;BME280;34170;54.364;18.582;2023-03-19T04:51:29;100204.06;;;7.45;70.83
48364;BME280;34170;54.364;18.582;2023-03-19T04:53:57;100200.97;;;7.29;71.69
48364;BME280;34170;54.364;18.582;2023-03-19T04:56:25;100201.44;;;7.34;71.61
48364;BME280;34170;54.364;18.582;2023-03-19T04:58:54;100187.88;;;7.47;70.19
48364;BME280;34170;54.364;18.582;2023-03-19T05:01:22;100199.28;;;7.60;70.05
48364;BME280;34170;54.364;18.582;2023-03-19T05:04:02;100204.03;;;7.57;70.71
48364;BME280;34170;54.364;18.582;2023-03-19T05:06:32;100193.47;;;7.55;69.54
48364;BME280;34170;54.364;18.582;2023-03-19T05:09:01;100193.75;;;7.73;69.87
48364;BME280;34170;54.364;18.582;2023-03-19T05:11:28;100201.47;;;7.88;68.87
48364;BME280;34170;54.364;18.582;2023-03-19T05:14:03;100194.69;;;7.83;69.15
48364;BME280;34170;54.364;18.582;2023-03-19T05:17:06;100191.19;;;7.72;69.44
48364;BME280;34170;54.364;18.582;2023-03-19T05:19:47;100183.38;;;7.80;69.37
48364;BME280;34170;54.364;18.582;2023-03-19T05:22:15;100187.19;;;8.08;68.33
48364;BME280;34170;54.364;18.582;2023-03-19T05:24:43;100194.50;;;8.27;66.76
48364;BME280;34170;54.364;18.582;2023-03-19T05:27:11;100192.19;;;8.65;66.30
48364;BME280;34170;54.364;18.582;2023-03-19T05:30:03;100185.84;;;8.66;65.13
48364;BME280;34170;54.364;18.582;2023-03-19T05:32:58;100200.88;;;8.97;63.15
48364;BME280;34170;54.364;18.582;2023-03-19T05:35:33;100206.31;;;9.17;63.44
48364;BME280;34170;54.364;18.582;2023-03-19T05:38:02;100209.69;;;9.19;62.33
48364;BME280;34170;54.364;18.582;2023-03-19T05:40:30;100204.88;;;9.13;62.82
48364;BME280;34170;54.364;18.582;2023-03-19T05:43:04;100200.34;;;9.04;62.84
48364;BME280;34170;54.364;18.582;2023-03-19T05:45:32;100213.94;;;9.22;62.35
48364;BME280;34170;54.364;18.582;2023-03-19T05:48:06;100204.00;;;9.03;62.27
48364;BME280;34170;54.364;18.582;2023-03-19T05:50:39;100207.91;;;8.79;63.10
48364;BME280;34170;54.364;18.582;2023-03-19T05:53:18;100214.97;;;9.40;61.81
48364;BME280;34170;54.364;18.582;2023-03-19T05:56:06;100210.44;;;9.80;59.34
48364;BME280;34170;54.364;18.582;2023-03-19T05:58:44;100221.44;;;10.16;58.51
48364;BME280;34170;54.364;18.582;2023-03-19T06:01:14;100209.66;;;10.26;57.12
48364;BME280;34170;54.364;18.582;2023-03-19T06:03:43;100223.56;;;10.32;57.00
48364;BME280;34170;54.364;18.582;2023-03-19T06:06:10;100225.56;;;10.77;56.36
48364;BME280;34170;54.364;18.582;2023-03-19T06:08:42;100235.19;;;11.07;55.38
48364;BME280;34170;54.364;18.582;2023-03-19T06:11:20;100231.16;;;10.83;54.89
48364;BME280;34170;54.364;18.582;2023-03-19T06:13:57;100227.03;;;10.89;55.19
48364;BME280;34170;54.364;18.582;2023-03-19T06:16:25;100221.63;;;10.99;54.09
48364;BME280;34170;54.364;18.582;2023-03-19T06:18:53;100218.13;;;10.88;55.59
48364;BME280;34170;54.364;18.582;2023-03-19T06:21:23;100231.53;;;10.98;54.39
48364;BME280;34170;54.364;18.582;2023-03-19T06:23:58;100234.31;;;11.52;53.58
48364;BME280;34170;54.364;18.582;2023-03-19T06:26:32;100230.56;;;11.63;52.00
48364;BME280;34170;54.364;18.582;2023-03-19T06:29:03;100233.72;;;11.94;51.87
48364;BME280;34170;54.364;18.582;2023-03-19T06:31:31;100238.16;;;12.04;51.28
48364;BME280;34170;54.364;18.582;2023-03-19T06:34:01;100238.44;;;12.36;50.43
48364;BME280;34170;54.364;18.582;2023-03-19T06:36:37;100234.94;;;12.70;49.17
48364;BME280;34170;54.364;18.582;2023-03-19T06:39:07;100241.91;;;13.83;47.68
48364;BME280;34170;54.364;18.582;2023-03-19T06:41:35;100239.16;;;14.57;43.84
48364;BME280;34170;54.364;18.582;2023-03-19T06:44:16;100236.47;;;14.40;43.83
48364;BME280;34170;54.364;18.582;2023-03-19T06:46:43;100249.16;;;13.90;45.25
48364;BME280;34170;54.364;18.582;2023-03-19T06:49:11;100240.03;;;14.16;45.43
48364;BME280;34170;54.364;18.582;2023-03-19T06:51:38;100241.75;;;13.84;45.57
48364;BME280;34170;54.364;18.582;2023-03-19T06:54:05;100250.66;;;14.34;44.96
48364;BME280;34170;54.364;18.582;2023-03-19T06:56:33;100252.31;;;14.84;43.18
48364;BME280;34170;54.364;18.582;2023-03-19T06:59:00;100250.78;;;14.82;44.22
48364;BME280;34170;54.364;18.582;2023-03-19T07:01:28;100241.00;;;14.64;43.67
48364;BME280;34170;54.364;18.582;2023-03-19T07:03:55;100260.31;;;14.12;44.60
48364;BME280;34170;54.364;18.582;2023-03-19T07:06:23;100254.56;;;14.56;44.38
48364;BME280;34170;54.364;18.582;2023-03-19T07:08:50;100260.56;;;14.91;43.71
48364;BME280;34170;54.364;18.582;2023-03-19T07:11:18;100252.44;;;14.99;43.29
48364;BME280;34170;54.364;18.582;2023-03-19T07:13:45;100262.84;;;15.19;43.19
48364;BME280;34170;54.364;18.582;2023-03-19T07:16:13;100269.06;;;15.28;42.94
48364;BME280;34170;54.364;18.582;2023-03-19T07:18:40;100268.81;;;16.76;39.74
48364;BME280;34170;54.364;18.582;2023-03-19T07:21:08;100273.47;;;17.42;38.94
48364;BME280;34170;54.364;18.582;2023-03-19T07:23:35;100274.09;;;18.38;36.26
48364;BME280;34170;54.364;18.582;2023-03-19T07:26:03;100264.41;;;18.85;36.37
48364;BME280;34170;54.364;18.582;2023-03-19T07:28:30;100271.72;;;18.07;36.59
48364;BME280;34170;54.364;18.582;2023-03-19T07:30:58;100280.06;;;18.27;37.36
48364;BME280;34170;54.364;18.582;2023-03-19T07:33:25;100268.66;;;18.17;37.07
48364;BME280;34170;54.364;18.582;2023-03-19T07:35:52;100279.72;;;18.58;36.78
48364;BME280;34170;54.364;18.582;2023-03-19T07:38:20;100286.84;;;18.88;36.03
48364;BME280;34170;54.364;18.582;2023-03-19T07:40:49;100278.72;;;19.36;35.51
48364;BME280;34170;54.364;18.582;2023-03-19T07:43:28;100293.91;;;20.53;33.99
48364;BME280;34170;54.364;18.582;2023-03-19T07:45:55;100291.09;;;21.72;31.43
48364;BME280;34170;54.364;18.582;2023-03-19T07:48:23;100295.88;;;23.16;30.07
48364;BME280;34170;54.364;18.582;2023-03-19T07:50:50;100292.44;;;24.96;27.55
48364;BME280;34170;54.364;18.582;2023-03-19T07:53:18;100289.97;;;26.33;25.24
48364;BME280;34170;54.364;18.582;2023-03-19T07:55:46;100287.69;;;26.13;25.82
48364;BME280;34170;54.364;18.582;2023-03-19T07:58:14;100292.84;;;26.09;25.02
48364;BME280;34170;54.364;18.582;2023-03-19T08:00:43;100304.53;;;27.18;24.56
48364;BME280;34170;54.364;18.582;2023-03-19T08:03:11;100287.63;;;26.24;24.06
48364;BME280;34170;54.364;18.582;2023-03-19T08:05:38;100291.72;;;27.29;24.23
48364;BME280;34170;54.364;18.582;2023-03-19T08:08:06;100292.69;;;27.39;23.66
48364;BME280;34170;54.364;18.582;2023-03-19T08:10:34;100296.44;;;28.27;22.26
48364;BME280;34170;54.364;18.582;2023-03-19T08:13:04;100295.03;;;28.94;22.48
48364;BME280;34170;54.364;18.582;2023-03-19T08:15:31;100298.69;;;29.58;21.45
48364;BME280;34170;54.364;18.582;2023-03-19T08:18:00;100292.03;;;28.31;22.00
48364;BME280;34170;54.364;18.582;2023-03-19T08:20:28;100283.81;;;27.60;23.14
48364;BME280;34170;54.364;18.582;2023-03-19T08:22:56;100288.22;;;27.16;23.82
48364;BME280;34170;54.364;18.582;2023-03-19T08:25:24;100279.53;;;27.69;23.13
48364;BME280;34170;54.364;18.582;2023-03-19T08:27:52;100279.59;;;28.61;22.26
48364;BME280;34170;54.364;18.582;2023-03-19T08:30:19;100280.13;;;26.71;24.42
48364;BME280;34170;54.364;18.582;2023-03-19T08:32:47;100282.75;;;24.69;25.86
48364;BME280;34170;54.364;18.582;2023-03-19T08:35:15;100279.66;;;21.82;29.75
48364;BME280;34170;54.364;18.582;2023-03-19T08:37:43;100259.69;;;22.63;30.01
48364;BME280;34170;54.364;18.582;2023-03-19T08:40:11;100265.41;;;22.05;30.26
48364;BME280;34170;54.364;18.582;2023-03-19T08:42:38;100271.03;;;25.09;26.51
48364;BME280;34170;54.364;18.582;2023-03-19T08:45:13;100270.63;;;22.13;29.86
48364;BME280;34170;54.364;18.582;2023-03-19T08:47:42;100275.44;;;24.75;26.75
48364;BME280;34170;54.364;18.582;2023-03-19T08:50:10;100271.38;;;24.89;26.76
48364;BME280;34170;54.364;18.582;2023-03-19T08:52:38;100271.88;;;24.86;26.88
48364;BME280;34170;54.364;18.582;2023-03-19T08:55:06;100270.13;;;23.54;28.81
48364;BME280;34170;54.364;18.582;2023-03-19T08:57:35;100274.25;;;24.95;26.21
48364;BME280;34170;54.364;18.582;2023-03-19T09:00:03;100278.31;;;24.80;26.93
48364;BME280;34170;54.364;18.582;2023-03-19T09:02:31;100267.78;;;25.24;26.09
48364;BME280;34170;54.364;18.582;2023-03-19T09:04:59;100263.31;;;22.82;28.91
48364;BME280;34170;54.364;18.582;2023-03-19T09:07:26;100270.28;;;22.78;30.14
48364;BME280;34170;54.364;18.582;2023-03-19T09:09:54;100274.34;;;22.94;30.54
48364;BME280;34170;54.364;18.582;2023-03-19T09:12:21;100267.16;;;23.86;27.81
48364;BME280;34170;54.364;18.582;2023-03-19T09:14:49;100267.44;;;23.47;28.32
48364;BME280;34170;54.364;18.582;2023-03-19T09:17:17;100266.66;;;26.06;26.19
48364;BME280;34170;54.364;18.582;2023-03-19T09:19:45;100268.28;;;23.11;29.28
48364;BME280;34170;54.364;18.582;2023-03-19T09:22:12;100259.97;;;23.54;28.54
48364;BME280;34170;54.364;18.582;2023-03-19T09:24:40;100275.25;;;24.65;27.34
48364;BME280;34170;54.364;18.582;2023-03-19T09:27:07;100274.53;;;20.95;32.24
48364;BME280;34170;54.364;18.582;2023-03-19T09:29:35;100273.16;;;24.36;27.43
48364;BME280;34170;54.364;18.582;2023-03-19T09:32:02;100263.31;;;23.56;28.27
48364;BME280;34170;54.364;18.582;2023-03-19T09:34:30;100268.28;;;23.11;28.58
48364;BME280;34170;54.364;18.582;2023-03-19T09:36:57;100265.56;;;23.11;28.63
48364;BME280;34170;54.364;18.582;2023-03-19T09:39:25;100270.06;;;22.36;30.29
48364;BME280;34170;54.364;18.582;2023-03-19T09:44:54;100274.75;;;24.68;28.07
48364;BME280;34170;54.364;18.582;2023-03-19T09:47:26;100268.66;;;24.54;27.19
48364;BME280;34170;54.364;18.582;2023-03-19T09:50:00;100267.09;;;24.04;27.76
48364;BME280;34170;54.364;18.582;2023-03-19T09:52:50;100266.38;;;24.09;29.43
48364;BME280;34170;54.364;18.582;2023-03-19T09:55:30;100261.56;;;23.92;29.56
48364;BME280;34170;54.364;18.582;2023-03-19T09:58:00;100259.91;;;23.91;28.55
48364;BME280;34170;54.364;18.582;2023-03-19T10:00:32;100247.88;;;20.50;33.65
48364;BME280;34170;54.364;18.582;2023-03-19T10:03:10;100262.59;;;21.41;32.68
48364;BME280;34170;54.364;18.582;2023-03-19T10:06:00;100256.47;;;19.32;36.53
48364;BME280;34170;54.364;18.582;2023-03-19T10:14:22;100263.84;;;20.73;34.82
48364;BME280;34170;54.364;18.582;2023-03-19T10:16:57;100252.84;;;18.27;38.33
48364;BME280;34170;54.364;18.582;2023-03-19T10:19:53;100259.66;;;19.49;35.99
48364;BME280;34170;54.364;18.582;2023-03-19T10:22:28;100259.84;;;20.76;34.60
48364;BME280;34170;54.364;18.582;2023-03-19T10:25:00;100253.28;;;22.95;31.07
48364;BME280;34170;54.364;18.582;2023-03-19T10:27:29;100252.00;;;21.06;33.16
48364;BME280;34170;54.364;18.582;2023-03-19T10:29:56;100238.53;;;21.95;31.35
48364;BME280;34170;54.364;18.582;2023-03-19T10:32:37;100254.47;;;21.73;31.84
48364;BME280;34170;54.364;18.582;2023-03-19T10:35:17;100257.13;;;22.87;31.08
48364;BME280;34170;54.364;18.582;2023-03-19T10:37:47;100244.75;;;23.40;30.68
48364;BME280;34170;54.364;18.582;2023-03-19T10:40:23;100252.78;;;25.73;27.31
48364;BME280;34170;54.364;18.582;2023-03-19T10:43:03;100250.59;;;25.46;27.23
48364;BME280;34170;54.364;18.582;2023-03-19T10:45:34;100243.97;;;19.03;37.34
48364;BME280;34170;54.364;18.582;2023-03-19T10:48:05;100244.34;;;22.37;32.48
48364;BME280;34170;54.364;18.582;2023-03-19T10:51:04;100247.13;;;21.22;33.04
48364;BME280;34170;54.364;18.582;2023-03-19T10:53:36;100252.78;;;23.53;30.20
48364;BME280;34170;54.364;18.582;2023-03-19T10:56:06;100251.88;;;24.20;29.80
48364;BME280;34170;54.364;18.582;2023-03-19T10:58:35;100234.00;;;20.52;33.67
48364;BME280;34170;54.364;18.582;2023-03-19T11:01:08;100246.63;;;22.08;32.08
48364;BME280;34170;54.364;18.582;2023-03-19T11:04:00;100248.28;;;22.67;31.37
48364;BME280;34170;54.364;18.582;2023-03-19T11:06:34;100245.97;;;20.71;33.67
48364;BME280;34170;54.364;18.582;2023-03-19T11:09:13;100241.03;;;19.04;36.97
48364;BME280;34170;54.364;18.582;2023-03-19T11:11:50;100238.59;;;19.78;36.16
48364;BME280;34170;54.364;18.582;2023-03-19T11:14:24;100235.16;;;21.16;33.42
48364;BME280;34170;54.364;18.582;2023-03-19T11:17:04;100228.03;;;19.61;36.34
48364;BME280;34170;54.364;18.582;2023-03-19T11:19:39;100226.50;;;19.39;37.10
48364;BME280;34170;54.364;18.582;2023-03-19T11:22:20;100225.59;;;19.73;36.59
48364;BME280;34170;54.364;18.582;2023-03-19T11:24:54;100225.94;;;19.57;37.08
48364;BME280;34170;54.364;18.582;2023-03-19T11:27:27;100222.22;;;18.46;39.08
48364;BME280;34170;54.364;18.582;2023-03-19T11:29:56;100222.31;;;18.03;40.14
48364;BME280;34170;54.364;18.582;2023-03-19T11:35:11;100229.13;;;17.78;40.65
48364;BME280;34170;54.364;18.582;2023-03-19T11:37:55;100228.28;;;17.19;42.50
48364;BME280;34170;54.364;18.582;2023-03-19T11:57:20;100221.41;;;17.96;40.86
48364;BME280;34170;54.364;18.582;2023-03-19T12:03:14;100211.88;;;18.07;42.78
48364;BME280;34170;54.364;18.582;2023-03-19T12:05:59;100211.47;;;17.30;42.87
48364;BME280;34170;54.364;18.582;2023-03-19T12:08:31;100215.72;;;17.18;43.72
48364;BME280;34170;54.364;18.582;2023-03-19T12:14:08;100201.69;;;17.51;43.58
48364;BME280;34170;54.364;18.582;2023-03-19T12:17:06;100200.50;;;17.60;43.42
48364;BME280;34170;54.364;18.582;2023-03-19T12:31:36;100181.75;;;17.44;43.78
48364;BME280;34170;54.364;18.582;2023-03-19T12:34:21;100179.88;;;17.87;43.32
48364;BME280;34170;54.364;18.582;2023-03-19T12:39:36;100183.94;;;17.77;43.81
48364;BME280;34170;54.364;18.582;2023-03-19T12:42:07;100178.81;;;17.67;44.16
48364;BME280;34170;54.364;18.582;2023-03-19T12:44:43;100176.25;;;17.22;44.85
48364;BME280;34170;54.364;18.582;2023-03-19T12:47:16;100180.22;;;17.41;44.45
48364;BME280;34170;54.364;18.582;2023-03-19T12:49:58;100176.16;;;17.73;44.32
48364;BME280;34170;54.364;18.582;2023-03-19T12:52:47;100168.16;;;17.44;44.41
48364;BME280;34170;54.364;18.582;2023-03-19T12:55:26;100177.13;;;17.08;45.40
48364;BME280;34170;54.364;18.582;2023-03-19T12:58:11;100168.28;;;17.57;44.66
48364;BME280;34170;54.364;18.582;2023-03-19T13:00:58;100170.41;;;17.62;45.42
48364;BME280;34170;54.364;18.582;2023-03-19T13:06:28;100158.66;;;17.18;44.99
48364;BME280;34170;54.364;18.582;2023-03-19T13:17:00;100158.03;;;17.01;46.22
48364;BME280;34170;54.364;18.582;2023-03-19T13:22:10;100158.19;;;17.14;45.88
48364;BME280;34170;54.364;18.582;2023-03-19T13:24:40;100151.00;;;17.07;46.05
48364;BME280;34170;54.364;18.582;2023-03-19T13:27:20;100156.16;;;17.60;45.54
48364;BME280;34170;54.364;18.582;2023-03-19T13:30:37;100163.34;;;17.46;46.13
48364;BME280;34170;54.364;18.582;2023-03-19T13:33:03;100155.00;;;17.90;44.44
48364;BME280;34170;54.364;18.582;2023-03-19T13:35:35;100156.50;;;17.50;44.99
48364;BME280;34170;54.364;18.582;2023-03-19T13:40:52;100153.19;;;17.55;45.32
48364;BME280;34170;54.364;18.582;2023-03-19T13:51:04;100145.88;;;17.77;45.14
48364;BME280;34170;54.364;18.582;2023-03-19T13:53:52;100148.41;;;17.57;45.77
48364;BME280;34170;54.364;18.582;2023-03-19T13:56:20;100145.63;;;17.50;46.30
48364;BME280;34170;54.364;18.582;2023-03-19T14:01:43;100148.84;;;17.60;45.90
48364;BME280;34170;54.364;18.582;2023-03-19T14:04:29;100149.22;;;17.36;46.35
48364;BME280;34170;54.364;18.582;2023-03-19T14:07:11;100147.91;;;18.18;44.58
48364;BME280;34170;54.364;18.582;2023-03-19T14:10:05;100151.06;;;17.50;46.47
48364;BME280;34170;54.364;18.582;2023-03-19T14:12:35;100135.25;;;17.39;46.20
48364;BME280;34170;54.364;18.582;2023-03-19T14:17:44;100152.03;;;17.85;45.55
48364;BME280;34170;54.364;18.582;2023-03-19T14:20:49;100157.38;;;17.36;46.71
48364;BME280;34170;54.364;18.582;2023-03-19T14:23:25;100143.25;;;17.25;46.70
48364;BME280;34170;54.364;18.582;2023-03-19T14:26:11;100148.53;;;17.48;46.58
48364;BME280;34170;54.364;18.582;2023-03-19T14:28:59;100151.38;;;17.04;48.03
48364;BME280;34170;54.364;18.582;2023-03-19T14:39:27;100153.41;;;17.17;48.07